sensor_id;sensor_type;location;lat;lon;timestamp;temperature;humidity
11538;DHT22;50159;49.426;11.182;2022-12-29T00:00:17;6.50;99.90
11538;DHT22;50159;49.426;11.182;2022-12-29T00:02:44;6.50;99.90
11538;DHT22;50159;49.426;11.182;2022-12-29T00:05:11;6.50;99.90
11538;DHT22;50159;49.426;11.182;2022-12-29T00:07:38;6.60;99.90
11538;DHT22;50159;49.426;11.182;2022-12-29T00:10:05;6.60;99.90
11538;DHT22;50159;49.426;11.182;2022-12-29T00:12:32;6.60;99.90
11538;DHT22;50159;49.426;11.182;2022-12-29T00:15:19;6.60;99.90
11538;DHT22;50159;49.426;11.182;2022-12-29T00:18:05;6.70;99.90
11538;DHT22;50159;49.426;11.182;2022-12-29T00:20:37;6.70;99.90
11538;DHT22;50159;49.426;11.182;2022-12-29T00:23:22;6.70;99.90
11538;DHT22;50159;49.426;11.182;2022-12-29T00:26:13;6.70;99.90
11538;DHT22;50159;49.426;11.182;2022-12-29T00:28:59;6.80;99.90
11538;DHT22;50159;49.426;11.182;2022-12-29T00:31:45;6.80;99.90
11538;DHT22;50159;49.426;11.182;2022-12-29T00:34:30;6.80;99.90
11538;DHT22;50159;49.426;11.182;2022-12-29T00:37:15;6.80;99.90
11538;DHT22;50159;49.426;11.182;2022-12-29T00:39:43;6.80;99.90
11538;DHT22;50159;49.426;11.182;2022-12-29T00:42:28;6.80;99.90
11538;DHT22;50159;49.426;11.182;2022-12-29T00:45:14;6.80;99.90
11538;DHT22;50159;49.426;11.182;2022-12-29T00:47:41;6.80;99.90
11538;DHT22;50159;49.426;11.182;2022-12-29T00:50:07;6.80;99.90
11538;DHT22;50159;49.426;11.182;2022-12-29T00:52:34;6.80;99.90
11538;DHT22;50159;49.426;11.182;2022-12-29T00:55:01;6.80;99.90
11538;DHT22;50159;49.426;11.182;2022-12-29T00:57:28;6.90;99.90
11538;DHT22;50159;49.426;11.182;2022-12-29T00:59:54;6.90;99.90
11538;DHT22;50159;49.426;11.182;2022-12-29T01:02:21;6.90;99.90
11538;DHT22;50159;49.426;11.182;2022-12-29T01:04:48;6.90;99.90
11538;DHT22;50159;49.426;11.182;2022-12-29T01:07:15;6.90;99.90
11538;DHT22;50159;49.426;11.182;2022-12-29T01:09:43;6.90;99.90
11538;DHT22;50159;49.426;11.182;2022-12-29T01:12:29;6.90;99.90
11538;DHT22;50159;49.426;11.182;2022-12-29T01:15:10;6.90;99.90
11538;DHT22;50159;49.426;11.182;2022-12-29T01:17:38;6.90;99.90
11538;DHT22;50159;49.426;11.182;2022-12-29T01:20:05;6.90;99.90
11538;DHT22;50159;49.426;11.182;2022-12-29T01:22:32;6.90;99.90
11538;DHT22;50159;49.426;11.182;2022-12-29T01:24:59;6.90;99.90
11538;DHT22;50159;49.426;11.182;2022-12-29T01:27:26;7.00;99.90
11538;DHT22;50159;49.426;11.182;2022-12-29T01:29:53;7.00;99.90
11538;DHT22;50159;49.426;11.182;2022-12-29T01:32:20;7.00;99.90
11538;DHT22;50159;49.426;11.182;2022-12-29T01:34:46;7.00;99.90
11538;DHT22;50159;49.426;11.182;2022-12-29T01:37:13;7.00;99.90
11538;DHT22;50159;49.426;11.182;2022-12-29T01:39:40;7.00;99.90
11538;DHT22;50159;49.426;11.182;2022-12-29T01:42:16;7.10;99.90
11538;DHT22;50159;49.426;11.182;2022-12-29T01:49:58;7.20;99.90
11538;DHT22;50159;49.426;11.182;2022-12-29T01:52:32;7.20;99.90
11538;DHT22;50159;49.426;11.182;2022-12-29T01:55:02;7.20;99.90
11538;DHT22;50159;49.426;11.182;2022-12-29T01:57:37;7.30;99.90
11538;DHT22;50159;49.426;11.182;2022-12-29T02:00:10;7.30;99.90
11538;DHT22;50159;49.426;11.182;2022-12-29T02:02:42;7.30;99.90
11538;DHT22;50159;49.426;11.182;2022-12-29T02:08:25;7.40;99.90
11538;DHT22;50159;49.426;11.182;2022-12-29T02:10:55;7.30;99.90
11538;DHT22;50159;49.426;11.182;2022-12-29T02:13:27;7.40;99.90
11538;DHT22;50159;49.426;11.182;2022-12-29T02:19:00;7.40;99.90
11538;DHT22;50159;49.426;11.182;2022-12-29T02:25:28;7.40;99.90
11538;DHT22;50159;49.426;11.182;2022-12-29T02:28:31;7.50;99.90
11538;DHT22;50159;49.426;11.182;2022-12-29T02:39:44;7.60;99.90
11538;DHT22;50159;49.426;11.182;2022-12-29T02:42:38;7.60;99.40
11538;DHT22;50159;49.426;11.182;2022-12-29T02:45:23;7.70;99.30
11538;DHT22;50159;49.426;11.182;2022-12-29T02:51:12;7.70;99.20
11538;DHT22;50159;49.426;11.182;2022-12-29T02:53:45;7.60;99.20
11538;DHT22;50159;49.426;11.182;2022-12-29T02:56:31;7.60;99.30
11538;DHT22;50159;49.426;11.182;2022-12-29T02:58:58;7.60;98.90
11538;DHT22;50159;49.426;11.182;2022-12-29T03:11:06;7.70;98.60
11538;DHT22;50159;49.426;11.182;2022-12-29T03:14:07;7.60;98.60
11538;DHT22;50159;49.426;11.182;2022-12-29T03:17:08;7.60;98.50
11538;DHT22;50159;49.426;11.182;2022-12-29T03:19:45;7.70;98.30
11538;DHT22;50159;49.426;11.182;2022-12-29T03:22:22;7.70;98.40
11538;DHT22;50159;49.426;11.182;2022-12-29T03:25:32;7.70;98.40
11538;DHT22;50159;49.426;11.182;2022-12-29T03:28:09;7.70;98.30
11538;DHT22;50159;49.426;11.182;2022-12-29T03:30:39;7.70;98.10
11538;DHT22;50159;49.426;11.182;2022-12-29T03:33:10;7.70;98.10
11538;DHT22;50159;49.426;11.182;2022-12-29T03:35:42;7.70;98.00
11538;DHT22;50159;49.426;11.182;2022-12-29T03:40:47;7.70;98.10
11538;DHT22;50159;49.426;11.182;2022-12-29T03:43:17;7.70;98.00
11538;DHT22;50159;49.426;11.182;2022-12-29T03:45:45;7.60;98.00
11538;DHT22;50159;49.426;11.182;2022-12-29T03:48:12;7.70;98.10
11538;DHT22;50159;49.426;11.182;2022-12-29T03:50:40;7.70;97.90
11538;DHT22;50159;49.426;11.182;2022-12-29T03:53:07;7.70;97.80
11538;DHT22;50159;49.426;11.182;2022-12-29T03:55:34;7.70;97.60
11538;DHT22;50159;49.426;11.182;2022-12-29T03:58:00;7.70;97.40
11538;DHT22;50159;49.426;11.182;2022-12-29T04:00:27;7.70;97.30
11538;DHT22;50159;49.426;11.182;2022-12-29T04:02:55;7.70;96.90
11538;DHT22;50159;49.426;11.182;2022-12-29T04:05:22;7.70;97.00
11538;DHT22;50159;49.426;11.182;2022-12-29T04:07:49;7.70;97.10
11538;DHT22;50159;49.426;11.182;2022-12-29T04:10:16;7.60;97.20
11538;DHT22;50159;49.426;11.182;2022-12-29T04:12:44;7.60;97.10
11538;DHT22;50159;49.426;11.182;2022-12-29T04:15:13;7.60;96.80
11538;DHT22;50159;49.426;11.182;2022-12-29T04:17:40;7.60;96.90
11538;DHT22;50159;49.426;11.182;2022-12-29T04:20:07;7.60;97.00
11538;DHT22;50159;49.426;11.182;2022-12-29T04:23:05;7.60;97.10
11538;DHT22;50159;49.426;11.182;2022-12-29T04:25:33;7.60;97.00
11538;DHT22;50159;49.426;11.182;2022-12-29T04:28:00;7.50;97.00
11538;DHT22;50159;49.426;11.182;2022-12-29T04:30:27;7.50;97.00
11538;DHT22;50159;49.426;11.182;2022-12-29T04:32:54;7.50;96.90
11538;DHT22;50159;49.426;11.182;2022-12-29T04:35:21;7.50;97.20
11538;DHT22;50159;49.426;11.182;2022-12-29T04:37:47;7.50;96.70
11538;DHT22;50159;49.426;11.182;2022-12-29T04:40:14;7.50;96.80
11538;DHT22;50159;49.426;11.182;2022-12-29T04:42:42;7.50;96.50
11538;DHT22;50159;49.426;11.182;2022-12-29T04:45:09;7.50;96.50
11538;DHT22;50159;49.426;11.182;2022-12-29T04:47:36;7.50;96.50
11538;DHT22;50159;49.426;11.182;2022-12-29T04:50:03;7.50;96.70
11538;DHT22;50159;49.426;11.182;2022-12-29T04:52:31;7.50;96.70
11538;DHT22;50159;49.426;11.182;2022-12-29T04:54:57;7.60;96.70
11538;DHT22;50159;49.426;11.182;2022-12-29T04:57:24;7.60;96.70
11538;DHT22;50159;49.426;11.182;2022-12-29T04:59:51;7.60;96.70
11538;DHT22;50159;49.426;11.182;2022-12-29T05:02:18;7.60;96.60
11538;DHT22;50159;49.426;11.182;2022-12-29T05:04:45;7.60;96.50
11538;DHT22;50159;49.426;11.182;2022-12-29T05:07:12;7.60;96.60
11538;DHT22;50159;49.426;11.182;2022-12-29T05:09:39;7.60;96.50
11538;DHT22;50159;49.426;11.182;2022-12-29T05:12:07;7.70;96.20
11538;DHT22;50159;49.426;11.182;2022-12-29T05:14:34;7.60;96.30
11538;DHT22;50159;49.426;11.182;2022-12-29T05:17:01;7.60;96.40
11538;DHT22;50159;49.426;11.182;2022-12-29T05:19:28;7.50;96.60
11538;DHT22;50159;49.426;11.182;2022-12-29T05:21:54;7.50;96.50
11538;DHT22;50159;49.426;11.182;2022-12-29T05:24:21;7.60;96.40
11538;DHT22;50159;49.426;11.182;2022-12-29T05:26:48;7.60;96.30
11538;DHT22;50159;49.426;11.182;2022-12-29T05:29:15;7.70;96.30
11538;DHT22;50159;49.426;11.182;2022-12-29T05:31:43;7.70;96.20
11538;DHT22;50159;49.426;11.182;2022-12-29T05:34:13;7.80;96.00
11538;DHT22;50159;49.426;11.182;2022-12-29T05:36:40;7.80;96.10
11538;DHT22;50159;49.426;11.182;2022-12-29T05:39:07;7.70;96.20
11538;DHT22;50159;49.426;11.182;2022-12-29T05:41:34;7.80;96.20
11538;DHT22;50159;49.426;11.182;2022-12-29T05:44:01;7.80;96.10
11538;DHT22;50159;49.426;11.182;2022-12-29T05:46:28;7.80;95.90
11538;DHT22;50159;49.426;11.182;2022-12-29T05:48:55;7.70;95.80
11538;DHT22;50159;49.426;11.182;2022-12-29T05:51:22;7.70;95.90
11538;DHT22;50159;49.426;11.182;2022-12-29T05:53:49;7.60;95.90
11538;DHT22;50159;49.426;11.182;2022-12-29T05:56:15;7.60;96.00
11538;DHT22;50159;49.426;11.182;2022-12-29T05:58:43;7.50;96.20
11538;DHT22;50159;49.426;11.182;2022-12-29T06:01:09;7.40;96.30
11538;DHT22;50159;49.426;11.182;2022-12-29T06:03:36;7.40;96.50
11538;DHT22;50159;49.426;11.182;2022-12-29T06:06:09;7.30;96.50
11538;DHT22;50159;49.426;11.182;2022-12-29T06:08:36;7.30;96.60
11538;DHT22;50159;49.426;11.182;2022-12-29T06:11:03;7.30;96.50
11538;DHT22;50159;49.426;11.182;2022-12-29T06:13:30;7.30;96.40
11538;DHT22;50159;49.426;11.182;2022-12-29T06:15:56;7.30;96.40
11538;DHT22;50159;49.426;11.182;2022-12-29T06:18:23;7.30;96.20
11538;DHT22;50159;49.426;11.182;2022-12-29T06:20:50;7.30;96.30
11538;DHT22;50159;49.426;11.182;2022-12-29T06:23:17;7.20;96.10
11538;DHT22;50159;49.426;11.182;2022-12-29T06:25:47;7.20;96.20
11538;DHT22;50159;49.426;11.182;2022-12-29T06:28:14;7.10;96.30
11538;DHT22;50159;49.426;11.182;2022-12-29T06:30:46;7.10;96.50
11538;DHT22;50159;49.426;11.182;2022-12-29T06:33:14;7.00;96.50
11538;DHT22;50159;49.426;11.182;2022-12-29T06:35:45;7.00;96.10
11538;DHT22;50159;49.426;11.182;2022-12-29T06:38:12;7.00;96.30
11538;DHT22;50159;49.426;11.182;2022-12-29T06:40:39;6.90;96.30
11538;DHT22;50159;49.426;11.182;2022-12-29T06:43:07;6.90;96.30
11538;DHT22;50159;49.426;11.182;2022-12-29T06:45:34;6.80;96.40
11538;DHT22;50159;49.426;11.182;2022-12-29T06:48:01;6.80;96.70
11538;DHT22;50159;49.426;11.182;2022-12-29T06:50:28;6.80;96.40
11538;DHT22;50159;49.426;11.182;2022-12-29T06:52:54;6.80;96.50
11538;DHT22;50159;49.426;11.182;2022-12-29T06:55:21;6.80;96.40
11538;DHT22;50159;49.426;11.182;2022-12-29T06:57:48;6.80;96.30
11538;DHT22;50159;49.426;11.182;2022-12-29T07:00:15;6.70;96.40
11538;DHT22;50159;49.426;11.182;2022-12-29T07:02:48;6.70;96.50
11538;DHT22;50159;49.426;11.182;2022-12-29T07:05:15;6.70;96.70
11538;DHT22;50159;49.426;11.182;2022-12-29T07:07:42;6.70;96.60
11538;DHT22;50159;49.426;11.182;2022-12-29T07:10:09;6.60;96.60
11538;DHT22;50159;49.426;11.182;2022-12-29T07:12:36;6.60;96.60
11538;DHT22;50159;49.426;11.182;2022-12-29T07:15:03;6.60;96.70
11538;DHT22;50159;49.426;11.182;2022-12-29T07:17:30;6.60;96.70
11538;DHT22;50159;49.426;11.182;2022-12-29T07:19:57;6.60;96.70
11538;DHT22;50159;49.426;11.182;2022-12-29T07:22:24;6.60;97.10
11538;DHT22;50159;49.426;11.182;2022-12-29T07:24:50;6.60;97.00
11538;DHT22;50159;49.426;11.182;2022-12-29T07:27:17;6.60;96.90
11538;DHT22;50159;49.426;11.182;2022-12-29T07:29:44;6.60;96.90
11538;DHT22;50159;49.426;11.182;2022-12-29T07:32:11;6.70;96.80
11538;DHT22;50159;49.426;11.182;2022-12-29T07:34:37;6.70;96.80
11538;DHT22;50159;49.426;11.182;2022-12-29T07:37:06;6.70;96.90
11538;DHT22;50159;49.426;11.182;2022-12-29T07:39:33;6.70;96.90
11538;DHT22;50159;49.426;11.182;2022-12-29T07:41:59;6.70;96.80
11538;DHT22;50159;49.426;11.182;2022-12-29T07:44:30;6.80;96.80
11538;DHT22;50159;49.426;11.182;2022-12-29T07:46:57;6.80;96.70
11538;DHT22;50159;49.426;11.182;2022-12-29T07:49:26;6.90;96.60
11538;DHT22;50159;49.426;11.182;2022-12-29T07:51:52;6.90;96.50
11538;DHT22;50159;49.426;11.182;2022-12-29T07:54:19;7.00;96.40
11538;DHT22;50159;49.426;11.182;2022-12-29T07:56:47;7.00;96.20
11538;DHT22;50159;49.426;11.182;2022-12-29T07:59:16;7.00;96.20
11538;DHT22;50159;49.426;11.182;2022-12-29T08:01:43;7.00;96.20
11538;DHT22;50159;49.426;11.182;2022-12-29T08:04:10;7.10;96.20
11538;DHT22;50159;49.426;11.182;2022-12-29T08:06:36;7.10;96.20
11538;DHT22;50159;49.426;11.182;2022-12-29T08:09:04;7.10;96.10
11538;DHT22;50159;49.426;11.182;2022-12-29T08:11:42;7.20;96.10
11538;DHT22;50159;49.426;11.182;2022-12-29T08:14:09;7.30;96.00
11538;DHT22;50159;49.426;11.182;2022-12-29T08:16:36;7.40;95.90
11538;DHT22;50159;49.426;11.182;2022-12-29T08:19:03;7.40;95.80
11538;DHT22;50159;49.426;11.182;2022-12-29T08:21:31;7.50;95.90
11538;DHT22;50159;49.426;11.182;2022-12-29T08:23:58;7.50;95.80
11538;DHT22;50159;49.426;11.182;2022-12-29T08:26:25;7.60;95.80
11538;DHT22;50159;49.426;11.182;2022-12-29T08:28:53;7.60;95.70
11538;DHT22;50159;49.426;11.182;2022-12-29T08:31:21;7.70;95.60
11538;DHT22;50159;49.426;11.182;2022-12-29T08:33:49;7.80;95.50
11538;DHT22;50159;49.426;11.182;2022-12-29T08:36:16;7.90;95.20
11538;DHT22;50159;49.426;11.182;2022-12-29T08:38:43;8.00;95.20
11538;DHT22;50159;49.426;11.182;2022-12-29T08:41:10;8.10;94.90
11538;DHT22;50159;49.426;11.182;2022-12-29T08:43:36;8.20;94.80
11538;DHT22;50159;49.426;11.182;2022-12-29T08:46:03;8.40;94.60
11538;DHT22;50159;49.426;11.182;2022-12-29T08:48:30;8.60;94.50
11538;DHT22;50159;49.426;11.182;2022-12-29T08:50:57;8.80;93.80
11538;DHT22;50159;49.426;11.182;2022-12-29T08:53:23;8.90;93.50
11538;DHT22;50159;49.426;11.182;2022-12-29T08:56:00;9.00;92.80
11538;DHT22;50159;49.426;11.182;2022-12-29T08:58:31;9.00;92.50
11538;DHT22;50159;49.426;11.182;2022-12-29T09:00:59;9.00;92.40
11538;DHT22;50159;49.426;11.182;2022-12-29T09:03:26;9.10;92.20
11538;DHT22;50159;49.426;11.182;2022-12-29T09:06:14;9.10;92.30
11538;DHT22;50159;49.426;11.182;2022-12-29T09:08:43;9.10;92.40
11538;DHT22;50159;49.426;11.182;2022-12-29T09:13:48;9.30;92.50
11538;DHT22;50159;49.426;11.182;2022-12-29T09:16:19;9.40;92.40
11538;DHT22;50159;49.426;11.182;2022-12-29T09:18:48;9.40;91.90
11538;DHT22;50159;49.426;11.182;2022-12-29T09:21:15;9.50;92.00
11538;DHT22;50159;49.426;11.182;2022-12-29T09:23:43;9.60;91.70
11538;DHT22;50159;49.426;11.182;2022-12-29T09:26:10;9.70;91.90
11538;DHT22;50159;49.426;11.182;2022-12-29T09:28:37;9.80;91.50
11538;DHT22;50159;49.426;11.182;2022-12-29T09:31:04;9.90;91.30
11538;DHT22;50159;49.426;11.182;2022-12-29T09:33:31;9.90;91.20
11538;DHT22;50159;49.426;11.182;2022-12-29T09:36:00;10.00;90.60
11538;DHT22;50159;49.426;11.182;2022-12-29T09:38:29;10.00;90.70
11538;DHT22;50159;49.426;11.182;2022-12-29T09:41:01;10.10;90.40
11538;DHT22;50159;49.426;11.182;2022-12-29T09:44:06;10.20;90.00
11538;DHT22;50159;49.426;11.182;2022-12-29T09:46:48;10.30;90.20
11538;DHT22;50159;49.426;11.182;2022-12-29T09:49:41;10.30;90.10
11538;DHT22;50159;49.426;11.182;2022-12-29T09:52:16;10.30;90.20
11538;DHT22;50159;49.426;11.182;2022-12-29T09:57:40;10.30;90.50
11538;DHT22;50159;49.426;11.182;2022-12-29T10:00:15;10.20;90.50
11538;DHT22;50159;49.426;11.182;2022-12-29T10:02:51;10.20;90.70
11538;DHT22;50159;49.426;11.182;2022-12-29T10:08:37;10.20;91.00
11538;DHT22;50159;49.426;11.182;2022-12-29T10:17:53;10.40;91.00
11538;DHT22;50159;49.426;11.182;2022-12-29T10:20:33;10.40;91.00
11538;DHT22;50159;49.426;11.182;2022-12-29T10:23:29;10.40;91.00
11538;DHT22;50159;49.426;11.182;2022-12-29T10:26:02;10.30;91.10
11538;DHT22;50159;49.426;11.182;2022-12-29T10:28:42;10.30;91.40
11538;DHT22;50159;49.426;11.182;2022-12-29T10:31:27;10.30;91.70
11538;DHT22;50159;49.426;11.182;2022-12-29T10:34:10;10.20;91.70
11538;DHT22;50159;49.426;11.182;2022-12-29T10:36:53;10.20;92.00
11538;DHT22;50159;49.426;11.182;2022-12-29T10:39:32;10.30;92.20
11538;DHT22;50159;49.426;11.182;2022-12-29T10:42:04;10.30;92.20
11538;DHT22;50159;49.426;11.182;2022-12-29T10:44:40;10.30;92.20
11538;DHT22;50159;49.426;11.182;2022-12-29T10:47:19;10.30;92.30
11538;DHT22;50159;49.426;11.182;2022-12-29T10:49:49;10.40;92.40
11538;DHT22;50159;49.426;11.182;2022-12-29T10:52:19;10.40;92.50
11538;DHT22;50159;49.426;11.182;2022-12-29T10:55:03;10.30;92.50
11538;DHT22;50159;49.426;11.182;2022-12-29T10:57:44;10.30;92.80
11538;DHT22;50159;49.426;11.182;2022-12-29T11:00:20;10.30;92.80
11538;DHT22;50159;49.426;11.182;2022-12-29T11:03:13;10.30;93.20
11538;DHT22;50159;49.426;11.182;2022-12-29T11:06:09;10.40;92.80
11538;DHT22;50159;49.426;11.182;2022-12-29T11:08:51;10.40;92.80
11538;DHT22;50159;49.426;11.182;2022-12-29T11:11:25;10.50;92.80
11538;DHT22;50159;49.426;11.182;2022-12-29T11:13:58;10.60;92.80
11538;DHT22;50159;49.426;11.182;2022-12-29T11:16:33;10.60;92.70
11538;DHT22;50159;49.426;11.182;2022-12-29T11:19:01;10.70;92.70
11538;DHT22;50159;49.426;11.182;2022-12-29T11:21:37;10.70;92.80
11538;DHT22;50159;49.426;11.182;2022-12-29T11:24:27;10.80;92.50
11538;DHT22;50159;49.426;11.182;2022-12-29T11:27:17;10.90;92.30
11538;DHT22;50159;49.426;11.182;2022-12-29T11:29:53;11.00;92.10
11538;DHT22;50159;49.426;11.182;2022-12-29T11:32:25;11.20;91.70
11538;DHT22;50159;49.426;11.182;2022-12-29T11:34:56;11.30;91.60
11538;DHT22;50159;49.426;11.182;2022-12-29T11:37:32;11.40;90.90
11538;DHT22;50159;49.426;11.182;2022-12-29T11:40:18;11.40;90.70
11538;DHT22;50159;49.426;11.182;2022-12-29T11:42:54;11.50;90.50
11538;DHT22;50159;49.426;11.182;2022-12-29T11:45:26;11.50;90.80
11538;DHT22;50159;49.426;11.182;2022-12-29T11:48:08;11.50;91.00
11538;DHT22;50159;49.426;11.182;2022-12-29T11:50:42;11.50;90.60
11538;DHT22;50159;49.426;11.182;2022-12-29T11:53:23;11.60;90.50
11538;DHT22;50159;49.426;11.182;2022-12-29T11:56:01;11.80;90.90
11538;DHT22;50159;49.426;11.182;2022-12-29T11:58:34;12.50;90.70
11538;DHT22;50159;49.426;11.182;2022-12-29T12:01:19;13.20;84.40
11538;DHT22;50159;49.426;11.182;2022-12-29T12:04:03;13.50;82.70
11538;DHT22;50159;49.426;11.182;2022-12-29T12:06:43;13.70;80.30
11538;DHT22;50159;49.426;11.182;2022-12-29T12:09:35;13.90;79.50
11538;DHT22;50159;49.426;11.182;2022-12-29T12:12:05;13.80;77.20
11538;DHT22;50159;49.426;11.182;2022-12-29T12:14:49;13.70;78.30
11538;DHT22;50159;49.426;11.182;2022-12-29T12:17:50;13.70;78.20
11538;DHT22;50159;49.426;11.182;2022-12-29T12:20:38;13.70;77.70
11538;DHT22;50159;49.426;11.182;2022-12-29T12:26:16;13.60;78.50
11538;DHT22;50159;49.426;11.182;2022-12-29T12:28:53;13.90;78.10
11538;DHT22;50159;49.426;11.182;2022-12-29T12:34:16;14.00;75.90
11538;DHT22;50159;49.426;11.182;2022-12-29T12:40:28;13.50;78.00
11538;DHT22;50159;49.426;11.182;2022-12-29T12:43:18;13.50;78.70
11538;DHT22;50159;49.426;11.182;2022-12-29T12:46:07;13.60;77.80
11538;DHT22;50159;49.426;11.182;2022-12-29T12:54:40;14.10;75.60
11538;DHT22;50159;49.426;11.182;2022-12-29T12:57:35;13.90;75.80
11538;DHT22;50159;49.426;11.182;2022-12-29T13:00:17;13.70;76.30
11538;DHT22;50159;49.426;11.182;2022-12-29T13:02:59;13.30;77.90
11538;DHT22;50159;49.426;11.182;2022-12-29T13:09:02;12.60;81.50
11538;DHT22;50159;49.426;11.182;2022-12-29T13:18:24;12.20;85.80
11538;DHT22;50159;49.426;11.182;2022-12-29T13:27:36;11.90;89.70
11538;DHT22;50159;49.426;11.182;2022-12-29T13:30:22;11.80;90.20
11538;DHT22;50159;49.426;11.182;2022-12-29T13:33:05;11.70;90.30
11538;DHT22;50159;49.426;11.182;2022-12-29T13:35:59;11.70;90.60
11538;DHT22;50159;49.426;11.182;2022-12-29T13:38:38;11.60;90.70
11538;DHT22;50159;49.426;11.182;2022-12-29T13:41:14;11.60;91.10
11538;DHT22;50159;49.426;11.182;2022-12-29T13:43:47;11.50;91.50
11538;DHT22;50159;49.426;11.182;2022-12-29T13:46:26;11.40;91.90
11538;DHT22;50159;49.426;11.182;2022-12-29T13:49:04;11.40;92.20
11538;DHT22;50159;49.426;11.182;2022-12-29T13:51:36;11.50;92.40
11538;DHT22;50159;49.426;11.182;2022-12-29T13:54:23;11.50;92.40
11538;DHT22;50159;49.426;11.182;2022-12-29T14:00:16;11.50;92.20
11538;DHT22;50159;49.426;11.182;2022-12-29T14:07:57;11.50;92.40
11538;DHT22;50159;49.426;11.182;2022-12-29T14:10:34;11.50;92.40
11538;DHT22;50159;49.426;11.182;2022-12-29T14:13:13;11.50;92.50
11538;DHT22;50159;49.426;11.182;2022-12-29T14:15:44;11.40;92.50
11538;DHT22;50159;49.426;11.182;2022-12-29T14:20:58;11.40;92.50
11538;DHT22;50159;49.426;11.182;2022-12-29T14:23:40;11.30;92.90
11538;DHT22;50159;49.426;11.182;2022-12-29T14:26:32;11.30;93.40
11538;DHT22;50159;49.426;11.182;2022-12-29T14:31:50;11.20;94.80
11538;DHT22;50159;49.426;11.182;2022-12-29T14:39:43;11.00;96.20
11538;DHT22;50159;49.426;11.182;2022-12-29T14:42:15;11.00;96.80
11538;DHT22;50159;49.426;11.182;2022-12-29T14:44:53;10.90;97.10
11538;DHT22;50159;49.426;11.182;2022-12-29T14:47:34;10.90;97.50
11538;DHT22;50159;49.426;11.182;2022-12-29T14:50:13;10.90;97.80
11538;DHT22;50159;49.426;11.182;2022-12-29T14:53:01;10.80;98.00
11538;DHT22;50159;49.426;11.182;2022-12-29T14:55:47;10.80;98.30
11538;DHT22;50159;49.426;11.182;2022-12-29T14:58:43;10.70;98.60
11538;DHT22;50159;49.426;11.182;2022-12-29T15:04:27;10.70;99.20
11538;DHT22;50159;49.426;11.182;2022-12-29T15:06:59;10.60;99.50
11538;DHT22;50159;49.426;11.182;2022-12-29T15:09:37;10.60;99.70
11538;DHT22;50159;49.426;11.182;2022-12-29T15:14:53;10.60;99.90
11538;DHT22;50159;49.426;11.182;2022-12-29T15:17:30;10.60;99.90
11538;DHT22;50159;49.426;11.182;2022-12-29T15:20:01;10.60;99.90
11538;DHT22;50159;49.426;11.182;2022-12-29T15:22:44;10.60;99.90
11538;DHT22;50159;49.426;11.182;2022-12-29T15:25:15;10.50;99.90
11538;DHT22;50159;49.426;11.182;2022-12-29T15:27:50;10.50;99.90
11538;DHT22;50159;49.426;11.182;2022-12-29T15:30:19;10.50;99.90
11538;DHT22;50159;49.426;11.182;2022-12-29T15:32:48;10.50;99.90
11538;DHT22;50159;49.426;11.182;2022-12-29T15:37:50;10.50;99.90
11538;DHT22;50159;49.426;11.182;2022-12-29T15:40:27;10.50;99.90
11538;DHT22;50159;49.426;11.182;2022-12-29T15:45:54;10.40;99.90
11538;DHT22;50159;49.426;11.182;2022-12-29T15:48:23;10.40;99.90
11538;DHT22;50159;49.426;11.182;2022-12-29T15:50:52;10.30;99.90
11538;DHT22;50159;49.426;11.182;2022-12-29T15:53:29;10.30;99.90
11538;DHT22;50159;49.426;11.182;2022-12-29T15:56:02;10.30;99.90
11538;DHT22;50159;49.426;11.182;2022-12-29T15:58:43;10.20;99.90
11538;DHT22;50159;49.426;11.182;2022-12-29T16:01:39;10.10;99.90
11538;DHT22;50159;49.426;11.182;2022-12-29T16:04:07;10.10;99.90
11538;DHT22;50159;49.426;11.182;2022-12-29T16:06:37;10.10;99.90
11538;DHT22;50159;49.426;11.182;2022-12-29T16:09:18;10.00;99.90
11538;DHT22;50159;49.426;11.182;2022-12-29T16:12:00;10.00;99.90
11538;DHT22;50159;49.426;11.182;2022-12-29T16:14:46;10.00;99.90
11538;DHT22;50159;49.426;11.182;2022-12-29T16:17:21;10.00;99.90
11538;DHT22;50159;49.426;11.182;2022-12-29T16:20:01;10.00;99.90
11538;DHT22;50159;49.426;11.182;2022-12-29T16:22:39;10.00;99.90
11538;DHT22;50159;49.426;11.182;2022-12-29T16:25:21;10.00;99.90
11538;DHT22;50159;49.426;11.182;2022-12-29T16:27:52;10.10;99.90
11538;DHT22;50159;49.426;11.182;2022-12-29T16:30:20;10.10;99.90
11538;DHT22;50159;49.426;11.182;2022-12-29T16:33:01;10.10;99.90
11538;DHT22;50159;49.426;11.182;2022-12-29T16:35:48;10.10;99.90
11538;DHT22;50159;49.426;11.182;2022-12-29T16:38:21;10.10;99.90
11538;DHT22;50159;49.426;11.182;2022-12-29T16:40:57;10.10;99.90
11538;DHT22;50159;49.426;11.182;2022-12-29T16:48:20;10.10;99.90
11538;DHT22;50159;49.426;11.182;2022-12-29T16:50:49;10.10;99.90
11538;DHT22;50159;49.426;11.182;2022-12-29T16:53:36;10.10;99.90
11538;DHT22;50159;49.426;11.182;2022-12-29T16:56:29;10.10;99.90
11538;DHT22;50159;49.426;11.182;2022-12-29T16:59:07;10.10;99.90
11538;DHT22;50159;49.426;11.182;2022-12-29T17:01:45;10.10;99.90
11538;DHT22;50159;49.426;11.182;2022-12-29T17:04:13;10.00;99.90
11538;DHT22;50159;49.426;11.182;2022-12-29T17:06:40;10.00;99.90
11538;DHT22;50159;49.426;11.182;2022-12-29T17:09:25;10.00;99.90
11538;DHT22;50159;49.426;11.182;2022-12-29T17:11:56;10.00;99.90
11538;DHT22;50159;49.426;11.182;2022-12-29T17:20:27;9.90;99.90
11538;DHT22;50159;49.426;11.182;2022-12-29T17:23:04;9.90;99.90
11538;DHT22;50159;49.426;11.182;2022-12-29T17:25:50;9.90;99.90
11538;DHT22;50159;49.426;11.182;2022-12-29T17:28:29;9.90;99.90
11538;DHT22;50159;49.426;11.182;2022-12-29T17:31:01;9.90;99.90
11538;DHT22;50159;49.426;11.182;2022-12-29T17:33:37;9.90;99.90
11538;DHT22;50159;49.426;11.182;2022-12-29T17:36:07;9.90;99.90
11538;DHT22;50159;49.426;11.182;2022-12-29T17:38:37;9.90;99.90
11538;DHT22;50159;49.426;11.182;2022-12-29T17:41:03;9.90;99.90
11538;DHT22;50159;49.426;11.182;2022-12-29T17:43:34;9.90;99.90
11538;DHT22;50159;49.426;11.182;2022-12-29T17:46:05;9.90;99.90
11538;DHT22;50159;49.426;11.182;2022-12-29T17:48:33;9.90;99.90
11538;DHT22;50159;49.426;11.182;2022-12-29T17:51:00;9.80;99.90
11538;DHT22;50159;49.426;11.182;2022-12-29T17:53:28;9.70;99.90
11538;DHT22;50159;49.426;11.182;2022-12-29T17:55:56;9.60;99.90
11538;DHT22;50159;49.426;11.182;2022-12-29T17:58:28;9.50;99.90
11538;DHT22;50159;49.426;11.182;2022-12-29T18:00:59;9.40;99.90
11538;DHT22;50159;49.426;11.182;2022-12-29T18:03:38;9.30;99.90
11538;DHT22;50159;49.426;11.182;2022-12-29T18:06:08;9.30;99.90
11538;DHT22;50159;49.426;11.182;2022-12-29T18:08:38;9.20;99.90
11538;DHT22;50159;49.426;11.182;2022-12-29T18:11:20;9.20;99.90